createdAt,value
2023-01-17T00:01:50.607Z,24.33
2023-01-17T00:04:36.246Z,22.27
2023-01-17T00:07:21.767Z,24.90
2023-01-17T00:09:54.713Z,19.70
2023-01-17T00:12:23.485Z,24.80
2023-01-17T00:14:52.217Z,20.77
2023-01-17T00:17:19.279Z,26.90
2023-01-17T00:20:05.054Z,24.73
2023-01-17T00:22:51.041Z,21.90
2023-01-17T00:25:40.199Z,22.90
2023-01-17T00:28:07.555Z,24.80
2023-01-17T00:30:34.632Z,21.13
2023-01-17T00:33:01.583Z,19.63
2023-01-17T00:35:30.662Z,27.17
2023-01-17T00:38:12.257Z,22.37
2023-01-17T00:40:41.274Z,22.50
2023-01-17T00:43:28.143Z,19.17
2023-01-17T00:46:14.422Z,17.60
2023-01-17T00:49:00.554Z,17.80
2023-01-17T00:51:48.009Z,18.13
2023-01-17T00:54:34.296Z,16.90
2023-01-17T00:57:20.537Z,17.37
2023-01-17T01:00:06.140Z,19.07
2023-01-17T01:02:52.327Z,19.47
2023-01-17T01:05:38.538Z,19.53
2023-01-17T01:08:47.963Z,21.73
2023-01-17T01:11:39.648Z,19.33
2023-01-17T01:14:28.528Z,21.33
2023-01-17T01:17:14.102Z,18.07
2023-01-17T01:19:59.959Z,21.27
2023-01-17T01:22:45.568Z,20.37
2023-01-17T01:25:31.077Z,20.20
2023-01-17T01:28:29.902Z,19.40
2023-01-17T01:31:18.745Z,20.87
2023-01-17T01:33:45.791Z,18.27
2023-01-17T01:36:12.825Z,18.60
2023-01-17T01:38:40.003Z,15.67
2023-01-17T01:41:07.466Z,18.47
2023-01-17T01:43:47.161Z,22.87
2023-01-17T01:46:39.317Z,18.77
2023-01-17T01:49:17.516Z,15.53
2023-01-17T01:51:51.211Z,16.33
2023-01-17T01:54:22.268Z,16.27
2023-01-17T01:56:52.602Z,17.20
2023-01-17T01:59:21.806Z,18.90
2023-01-17T02:01:51.741Z,20.50
2023-01-17T02:04:20.052Z,16.40
2023-01-17T02:06:55.709Z,15.93
2023-01-17T02:09:23.853Z,20.43
2023-01-17T02:11:51.083Z,17.37
2023-01-17T02:14:19.947Z,19.00
2023-01-17T02:16:47.017Z,15.57
2023-01-17T02:19:22.890Z,16.37
2023-01-17T02:21:58.826Z,16.00
2023-01-17T02:24:47.042Z,17.23
2023-01-17T02:27:19.817Z,21.60
2023-01-17T02:30:11.330Z,22.30
2023-01-17T02:33:26.211Z,21.30
2023-01-17T02:36:17.764Z,19.77
2023-01-17T02:38:55.712Z,18.53
2023-01-17T02:41:29.621Z,18.47
2023-01-17T02:43:56.645Z,22.67
2023-01-17T02:46:23.662Z,19.73
2023-01-17T02:48:52.223Z,16.40
2023-01-17T02:51:39.101Z,18.13
2023-01-17T02:54:46.001Z,22.52
2023-01-17T02:57:24.997Z,20.00
2023-01-17T03:00:14.160Z,18.37
2023-01-17T03:02:58.807Z,16.60
2023-01-17T03:05:57.591Z,21.33
2023-01-17T03:08:25.821Z,18.17
2023-01-17T03:10:53.075Z,18.23
2023-01-17T03:13:20.052Z,16.83
2023-01-17T03:15:47.469Z,15.90
2023-01-17T03:18:16.162Z,18.57
2023-01-17T03:20:43.263Z,21.43
2023-01-17T03:23:10.295Z,17.67
2023-01-17T03:25:37.249Z,14.90
2023-01-17T03:28:04.572Z,18.13
2023-01-17T03:30:31.678Z,24.03
2023-01-17T03:32:58.661Z,19.90
2023-01-17T03:35:25.774Z,19.90
2023-01-17T03:37:52.763Z,17.03
2023-01-17T03:40:19.923Z,18.10
2023-01-17T03:42:46.937Z,15.60
2023-01-17T03:45:14.170Z,19.03
2023-01-17T03:47:41.149Z,21.20
2023-01-17T03:50:08.754Z,14.60
2023-01-17T03:52:35.733Z,18.57
2023-01-17T03:55:02.845Z,17.13
2023-01-17T03:57:30.009Z,16.10
2023-01-17T03:59:56.953Z,17.13
2023-01-17T04:02:24.676Z,15.67
2023-01-17T04:04:51.749Z,18.17
2023-01-17T04:07:18.722Z,19.47
2023-01-17T04:09:45.701Z,20.57
2023-01-17T04:12:12.752Z,18.13
2023-01-17T04:14:41.192Z,20.13
2023-01-17T04:17:12.614Z,17.03
2023-01-17T04:19:39.944Z,18.80
2023-01-17T04:22:07.293Z,15.00
2023-01-17T04:24:34.241Z,19.00
2023-01-17T04:27:01.170Z,18.10
2023-01-17T04:29:28.135Z,21.80
2023-01-17T04:31:55.133Z,19.10
2023-01-17T04:34:22.253Z,19.07
2023-01-17T04:36:49.237Z,19.03
2023-01-17T04:39:16.271Z,21.73
2023-01-17T04:41:44.012Z,22.13
2023-01-17T04:44:11.027Z,18.13
2023-01-17T04:46:38.060Z,18.13
2023-01-17T04:49:05.117Z,20.00
2023-01-17T04:51:32.090Z,15.53
2023-01-17T04:53:59.074Z,19.70
2023-01-17T04:56:27.086Z,19.47
2023-01-17T04:58:57.227Z,19.00
2023-01-17T05:01:24.382Z,20.47
2023-01-17T05:03:51.510Z,20.90
2023-01-17T05:06:18.433Z,18.40
2023-01-17T05:08:45.417Z,22.77
2023-01-17T05:11:13.203Z,18.77
2023-01-17T05:13:40.137Z,24.07
2023-01-17T05:16:07.375Z,40.00
2023-01-17T05:18:34.371Z,22.53
2023-01-17T05:21:04.471Z,19.63
2023-01-17T05:23:33.051Z,21.90
2023-01-17T05:26:00.028Z,21.57
2023-01-17T05:28:27.062Z,18.20
2023-01-17T05:30:54.068Z,17.00
2023-01-17T05:33:21.115Z,20.73
2023-01-17T05:35:48.077Z,23.23
2023-01-17T05:38:15.024Z,20.47
2023-01-17T05:40:42.092Z,22.17
2023-01-17T05:43:09.100Z,20.47
2023-01-17T05:45:36.318Z,28.60
2023-01-17T05:48:03.605Z,20.60
2023-01-17T05:50:33.386Z,23.63
2023-01-17T05:53:05.789Z,21.10
2023-01-17T05:55:33.897Z,18.30
2023-01-17T05:58:01.581Z,16.90
2023-01-17T06:00:33.608Z,19.63
2023-01-17T06:03:01.158Z,17.80
2023-01-17T06:05:30.174Z,21.27
2023-01-17T06:07:57.798Z,21.20
2023-01-17T06:10:25.687Z,20.97
2023-01-17T06:13:11.040Z,20.87
2023-01-17T06:15:39.039Z,19.27
2023-01-17T06:18:12.053Z,19.80
2023-01-17T06:20:39.880Z,20.57
2023-01-17T06:23:09.963Z,12.83
2023-01-17T06:25:38.700Z,19.93
2023-01-17T06:28:07.016Z,23.03
2023-01-17T06:30:34.576Z,18.33
2023-01-17T06:33:01.697Z,24.30
2023-01-17T06:35:29.238Z,21.90
2023-01-17T06:37:58.255Z,17.57
2023-01-17T06:40:26.575Z,17.70
2023-01-17T06:42:53.947Z,17.07
2023-01-17T06:45:21.415Z,20.43
2023-01-17T06:47:48.344Z,22.43
2023-01-17T06:50:15.833Z,20.23
2023-01-17T06:52:43.250Z,19.23
2023-01-17T06:55:10.439Z,20.47
2023-01-17T06:57:37.413Z,17.57
2023-01-17T07:00:05.175Z,22.57
2023-01-17T07:02:32.193Z,22.50
2023-01-17T07:04:59.140Z,20.10
2023-01-17T07:07:26.068Z,18.20
2023-01-17T07:09:53.000Z,20.87
2023-01-17T07:12:19.981Z,18.70
2023-01-17T07:14:46.941Z,19.93
2023-01-17T07:17:13.874Z,17.80
2023-01-17T07:19:40.813Z,21.77
2023-01-17T07:22:10.530Z,23.53
2023-01-17T07:24:37.722Z,21.97
2023-01-17T07:27:04.707Z,21.23
2023-01-17T07:29:31.668Z,22.83
2023-01-17T07:31:58.603Z,20.63
2023-01-17T07:34:25.537Z,18.50
2023-01-17T07:36:54.557Z,17.57
2023-01-17T07:39:21.921Z,19.20
2023-01-17T07:41:48.945Z,20.10
2023-01-17T07:44:16.459Z,20.08
2023-01-17T07:46:43.532Z,16.53
2023-01-17T07:49:10.602Z,22.77
2023-01-17T07:51:37.583Z,21.57
2023-01-17T07:54:04.671Z,22.93
2023-01-17T07:56:34.280Z,19.40
2023-01-17T07:59:01.840Z,18.17
2023-01-17T08:01:30.492Z,21.83
2023-01-17T08:03:57.693Z,18.52
2023-01-17T08:06:26.269Z,19.87
2023-01-17T08:08:59.118Z,20.02
2023-01-17T08:11:26.916Z,18.35
2023-01-17T08:14:00.251Z,20.23
2023-01-17T08:16:28.835Z,20.83
2023-01-17T08:18:56.721Z,19.05
2023-01-17T08:21:24.367Z,19.38
2023-01-17T08:23:52.464Z,20.15
2023-01-17T08:26:22.520Z,25.17
2023-01-17T08:28:55.644Z,22.48
2023-01-17T08:31:22.923Z,20.95
2023-01-17T08:33:49.924Z,22.08
2023-01-17T08:36:17.462Z,23.15
2023-01-17T08:38:44.821Z,23.73
2023-01-17T08:41:13.076Z,23.40
2023-01-17T08:43:40.094Z,25.75
2023-01-17T08:46:07.202Z,24.08
2023-01-17T08:48:34.293Z,21.65
2023-01-17T08:51:02.906Z,26.30
2023-01-17T08:53:29.948Z,26.45
2023-01-17T08:56:02.177Z,25.02
2023-01-17T08:58:30.899Z,30.17
2023-01-17T09:01:06.244Z,25.20
2023-01-17T09:03:34.568Z,21.70
2023-01-17T09:06:13.238Z,27.33
2023-01-17T09:08:40.775Z,27.00
2023-01-17T09:11:10.900Z,27.10
2023-01-17T09:13:38.694Z,25.25
2023-01-17T09:16:06.896Z,28.00
2023-01-17T09:18:35.670Z,27.10
2023-01-17T09:21:13.564Z,22.30
2023-01-17T09:23:40.978Z,28.75
2023-01-17T09:26:14.447Z,28.27
2023-01-17T09:28:42.818Z,28.38
2023-01-17T09:31:10.223Z,26.10
2023-01-17T09:33:38.324Z,31.27
2023-01-17T09:36:05.644Z,30.85
2023-01-17T09:38:33.221Z,26.23
2023-01-17T09:41:02.907Z,29.25
2023-01-17T09:43:51.546Z,32.08
2023-01-17T09:46:24.056Z,31.10
2023-01-17T09:48:59.092Z,28.83
2023-01-17T09:51:26.086Z,27.98
2023-01-17T09:53:54.877Z,24.45
2023-01-17T09:56:29.722Z,36.00
2023-01-17T09:59:18.577Z,28.65
2023-01-17T10:02:12.998Z,30.08
2023-01-17T10:05:04.648Z,28.33
2023-01-17T10:08:02.025Z,27.92
2023-01-17T10:10:41.691Z,33.95
2023-01-17T10:13:43.769Z,28.95
2023-01-17T10:16:31.795Z,30.20
2023-01-17T10:19:10.112Z,29.67
2023-01-17T10:21:49.685Z,34.10
2023-01-17T10:24:45.050Z,29.73
2023-01-17T10:27:21.861Z,25.67
2023-01-17T10:29:50.953Z,28.25
2023-01-17T10:32:22.388Z,26.30
2023-01-17T10:34:51.975Z,22.13
2023-01-17T10:37:37.147Z,23.63
2023-01-17T10:40:14.114Z,25.05
2023-01-17T10:42:52.478Z,27.77
2023-01-17T10:45:29.303Z,25.55
2023-01-17T10:48:36.781Z,27.20
2023-01-17T10:51:22.107Z,22.67
2023-01-17T10:54:13.948Z,24.85
2023-01-17T10:56:41.807Z,27.27
2023-01-17T10:59:27.646Z,33.88
2023-01-17T11:01:54.697Z,28.02
2023-01-17T11:04:30.672Z,30.73
2023-01-17T11:07:12.514Z,31.17
2023-01-17T11:09:43.320Z,34.35
2023-01-17T11:12:38.621Z,31.00
2023-01-17T11:15:11.421Z,31.10
2023-01-17T11:18:02.241Z,32.65
2023-01-17T11:20:38.483Z,33.17
2023-01-17T11:23:31.611Z,32.70
2023-01-17T11:26:04.889Z,36.42
2023-01-17T11:28:34.224Z,34.80
2023-01-17T11:31:04.400Z,31.52
2023-01-17T11:33:48.109Z,31.35
2023-01-17T11:36:27.639Z,38.33
2023-01-17T11:39:23.903Z,35.97
2023-01-17T11:41:52.290Z,31.25
2023-01-17T11:44:32.895Z,33.42
2023-01-17T11:47:17.110Z,33.10
2023-01-17T11:49:46.554Z,35.40
2023-01-17T11:52:19.424Z,30.45
2023-01-17T11:54:49.447Z,41.03
2023-01-17T11:57:21.527Z,35.40
2023-01-17T11:59:49.189Z,35.45
2023-01-17T12:02:38.257Z,30.85
2023-01-17T12:05:39.247Z,32.38
2023-01-17T12:08:21.462Z,37.53
2023-01-17T12:11:12.061Z,32.42
2023-01-17T12:14:00.274Z,35.50
2023-01-17T12:16:30.805Z,33.30
2023-01-17T12:19:19.478Z,42.30
2023-01-17T12:22:15.402Z,40.53
2023-01-17T12:25:12.052Z,31.13
2023-01-17T12:28:04.099Z,28.47
2023-01-17T12:30:47.997Z,33.55
2023-01-17T12:33:34.622Z,28.00
2023-01-17T12:36:08.735Z,28.40
2023-01-17T12:38:39.241Z,31.25
2023-01-17T12:41:10.398Z,37.92
2023-01-17T12:43:40.774Z,34.40
2023-01-17T12:46:21.195Z,31.63
2023-01-17T12:48:57.930Z,32.85
2023-01-17T12:51:29.716Z,30.35
2023-01-17T12:54:06.459Z,31.15
2023-01-17T12:56:56.592Z,29.00
2023-01-17T12:59:32.568Z,29.42
2023-01-17T13:02:02.630Z,37.10
2023-01-17T13:04:53.136Z,26.50
2023-01-17T13:07:50.478Z,29.88
2023-01-17T13:10:55.847Z,31.85
2023-01-17T13:13:33.096Z,28.77
2023-01-17T13:16:11.484Z,31.27
2023-01-17T13:18:49.640Z,36.25
2023-01-17T13:21:33.976Z,26.60
2023-01-17T13:24:03.705Z,30.23
2023-01-17T13:26:51.962Z,32.08
2023-01-17T13:29:56.899Z,37.45
2023-01-17T13:32:48.901Z,35.10
2023-01-17T13:35:36.066Z,32.25
2023-01-17T13:38:20.940Z,30.83
2023-01-17T13:41:02.825Z,32.35
2023-01-17T13:43:39.505Z,32.45
2023-01-17T13:46:07.233Z,29.65
2023-01-17T13:48:40.988Z,28.67
2023-01-17T13:51:09.661Z,27.15
2023-01-17T13:53:39.736Z,28.33
2023-01-17T13:56:19.058Z,33.17
2023-01-17T13:58:54.530Z,27.05
2023-01-17T14:01:24.507Z,25.13
2023-01-17T14:03:54.358Z,28.90
2023-01-17T14:06:38.168Z,24.70
2023-01-17T14:09:07.923Z,26.02
2023-01-17T14:11:37.311Z,22.02
2023-01-17T14:14:44.367Z,24.30
2023-01-17T14:17:25.635Z,22.30
2023-01-17T14:20:01.658Z,26.05
2023-01-17T14:22:35.385Z,19.08
2023-01-17T14:25:11.696Z,25.42
2023-01-17T14:30:22.607Z,24.27
2023-01-17T14:32:58.806Z,24.08
2023-01-17T14:35:29.950Z,20.58
2023-01-17T14:37:57.831Z,24.65
2023-01-17T14:40:30.599Z,22.42
2023-01-17T14:43:04.459Z,19.55
2023-01-17T14:45:34.753Z,25.52
2023-01-17T14:48:06.068Z,25.33
2023-01-17T14:50:38.346Z,28.95
2023-01-17T14:53:16.542Z,23.55
2023-01-17T14:55:49.452Z,22.75
2023-01-17T14:58:20.793Z,24.05
2023-01-17T15:00:50.257Z,22.85
2023-01-17T15:03:17.597Z,28.35
2023-01-17T15:05:49.556Z,24.05
2023-01-17T15:08:20.440Z,22.38
2023-01-17T15:11:00.224Z,19.85
2023-01-17T15:13:44.415Z,26.95
2023-01-17T15:16:26.168Z,25.08
2023-01-17T15:18:54.727Z,25.08
2023-01-17T15:21:24.942Z,21.60
2023-01-17T15:23:57.913Z,27.65
2023-01-17T15:26:31.604Z,23.60
2023-01-17T15:29:12.595Z,22.42
2023-01-17T15:31:44.660Z,20.20
2023-01-17T15:34:35.025Z,25.10
2023-01-17T15:37:19.573Z,26.13
2023-01-17T15:39:46.997Z,22.58
2023-01-17T15:42:26.683Z,22.10
2023-01-17T15:44:56.558Z,23.65
2023-01-17T15:47:33.882Z,21.90
2023-01-17T15:50:02.894Z,26.23
2023-01-17T15:52:30.598Z,22.75
2023-01-17T15:55:14.122Z,26.90
2023-01-17T15:57:47.564Z,21.60
2023-01-17T16:00:18.504Z,21.90
2023-01-17T16:02:46.891Z,21.33
2023-01-17T16:05:27.871Z,27.15
2023-01-17T16:07:57.176Z,28.98
2023-01-17T16:10:28.745Z,25.17
2023-01-17T16:12:56.361Z,27.52
2023-01-17T16:15:24.613Z,23.50
2023-01-17T16:18:03.268Z,26.08
2023-01-17T16:20:38.270Z,24.38
2023-01-17T16:23:05.387Z,25.98
2023-01-17T16:25:33.097Z,24.65
2023-01-17T16:28:00.732Z,21.25
2023-01-17T16:30:29.117Z,24.27
2023-01-17T16:32:57.037Z,25.80
2023-01-17T16:35:27.830Z,26.48
2023-01-17T16:38:06.339Z,27.67
2023-01-17T16:40:39.424Z,26.40
2023-01-17T16:43:06.445Z,28.52
2023-01-17T16:45:42.238Z,22.73
2023-01-17T16:48:11.559Z,24.67
2023-01-17T16:50:53.214Z,25.67
2023-01-17T16:53:24.700Z,29.65
2023-01-17T16:55:57.627Z,32.67
2023-01-17T16:58:25.009Z,30.95
2023-01-17T17:00:52.266Z,28.25
2023-01-17T17:03:22.624Z,28.98
2023-01-17T17:05:58.143Z,32.33
2023-01-17T17:08:25.758Z,29.17
2023-01-17T17:10:52.986Z,34.33
2023-01-17T17:13:20.305Z,27.45
2023-01-17T17:15:47.539Z,27.48
2023-01-17T17:18:16.742Z,30.70
2023-01-17T17:20:44.698Z,31.25
2023-01-17T17:23:12.009Z,30.27
2023-01-17T17:25:39.341Z,29.63
2023-01-17T17:28:06.799Z,28.90
2023-01-17T17:30:34.618Z,31.02
2023-01-17T17:33:04.637Z,25.50
2023-01-17T17:35:35.017Z,32.42
2023-01-17T17:38:02.088Z,26.02
2023-01-17T17:40:29.090Z,30.33
2023-01-17T17:42:56.071Z,28.85
2023-01-17T17:45:23.103Z,24.98
2023-01-17T17:47:50.132Z,31.58
2023-01-17T17:50:17.211Z,22.33
2023-01-17T17:52:44.631Z,25.63
2023-01-17T17:55:13.235Z,24.88
2023-01-17T17:57:40.253Z,26.80
2023-01-17T18:00:08.136Z,27.77
2023-01-17T18:02:35.140Z,27.92
2023-01-17T18:05:02.476Z,29.23
2023-01-17T18:07:32.509Z,27.63
2023-01-17T18:09:59.543Z,33.25
2023-01-17T18:12:26.959Z,27.85
2023-01-17T18:14:53.975Z,29.80
2023-01-17T18:17:21.006Z,27.75
2023-01-17T18:19:48.159Z,33.95
2023-01-17T18:22:15.152Z,33.95
2023-01-17T18:24:42.135Z,28.17
2023-01-17T18:27:10.571Z,34.42
2023-01-17T18:29:37.755Z,35.53
2023-01-17T18:32:04.909Z,30.55
2023-01-17T18:34:33.839Z,24.02
2023-01-17T18:37:01.129Z,28.35
2023-01-17T18:39:30.030Z,30.13
2023-01-17T18:41:57.997Z,26.52
2023-01-17T18:44:26.805Z,31.80
2023-01-17T18:46:54.656Z,27.40
2023-01-17T18:49:21.785Z,26.92
2023-01-17T18:51:51.970Z,27.75
2023-01-17T18:54:20.005Z,26.42
2023-01-17T18:56:47.226Z,26.80
2023-01-17T18:59:18.435Z,27.77
2023-01-17T19:01:46.003Z,24.17
2023-01-17T19:04:14.945Z,27.35
2023-01-17T19:06:44.574Z,23.77
2023-01-17T19:09:13.389Z,29.42
2023-01-17T19:11:40.424Z,20.45
2023-01-17T19:14:07.536Z,23.85
2023-01-17T19:16:39.263Z,21.38
2023-01-17T19:19:09.966Z,22.60
2023-01-17T19:21:37.046Z,23.00
2023-01-17T19:24:04.279Z,23.42
2023-01-17T19:26:31.508Z,37.63
2023-01-17T19:28:59.106Z,24.85
2023-01-17T19:31:28.328Z,28.95
2023-01-17T19:33:57.814Z,27.02
2023-01-17T19:36:31.652Z,25.27
2023-01-17T19:39:04.762Z,27.70
2023-01-17T19:41:34.061Z,23.95
2023-01-17T19:44:06.152Z,29.30
2023-01-17T19:46:34.632Z,31.10
2023-01-17T19:49:02.737Z,27.58
2023-01-17T19:51:30.108Z,24.25
2023-01-17T19:53:59.919Z,26.33
2023-01-17T19:56:27.780Z,26.20
2023-01-17T19:58:54.849Z,28.33
2023-01-17T20:01:26.688Z,23.77
2023-01-17T20:03:55.500Z,27.48
2023-01-17T20:06:27.325Z,25.35
2023-01-17T20:08:54.745Z,26.38
2023-01-17T20:11:24.013Z,28.27
2023-01-17T20:13:55.957Z,23.23
2023-01-17T20:16:24.322Z,25.80
2023-01-17T20:18:52.086Z,26.13
2023-01-17T20:21:22.463Z,28.58
2023-01-17T20:23:50.732Z,25.63
2023-01-17T20:26:20.239Z,30.05
2023-01-17T20:28:49.754Z,22.85
2023-01-17T20:31:22.667Z,27.05
2023-01-17T20:33:50.543Z,28.15
2023-01-17T20:36:19.089Z,34.28
2023-01-17T20:38:46.848Z,29.95
2023-01-17T20:41:30.792Z,21.48
2023-01-17T20:43:59.758Z,35.78
2023-01-17T20:46:29.732Z,28.98
2023-01-17T20:48:58.207Z,29.95
2023-01-17T20:51:27.015Z,31.52
2023-01-17T20:53:56.347Z,29.02
2023-01-17T20:56:24.271Z,29.83
2023-01-17T20:58:52.785Z,38.63
2023-01-17T21:01:21.312Z,41.58
2023-01-17T21:03:51.680Z,37.35
2023-01-17T21:06:20.464Z,37.25
2023-01-17T21:08:48.577Z,26.05
2023-01-17T21:11:18.836Z,27.75
2023-01-17T21:13:47.367Z,33.92
2023-01-17T21:16:16.568Z,34.70
2023-01-17T21:18:47.354Z,27.08
2023-01-17T21:21:22.293Z,29.50
2023-01-17T21:23:51.105Z,29.27
2023-01-17T21:26:19.828Z,30.30
2023-01-17T21:28:48.188Z,31.75
2023-01-17T21:31:25.887Z,28.05
2023-01-17T21:34:13.944Z,27.10
2023-01-17T21:36:42.485Z,24.08
2023-01-17T21:39:18.644Z,33.75
2023-01-17T21:41:49.625Z,27.65
2023-01-17T21:44:21.610Z,28.23
2023-01-17T21:46:49.492Z,40.83
2023-01-17T21:49:17.371Z,37.30
2023-01-17T21:51:53.200Z,32.70
2023-01-17T21:54:41.880Z,33.25
2023-01-17T21:57:28.817Z,34.38
2023-01-17T21:59:55.799Z,23.73
2023-01-17T22:02:22.868Z,32.70
2023-01-17T22:04:49.978Z,32.58
2023-01-17T22:07:17.248Z,28.63
2023-01-17T22:09:44.206Z,29.55
2023-01-17T22:12:11.209Z,31.30
2023-01-17T22:14:39.100Z,28.95
2023-01-17T22:17:06.068Z,31.52
2023-01-17T22:19:33.818Z,38.42
2023-01-17T22:22:01.247Z,35.35
2023-01-17T22:24:28.350Z,35.70
2023-01-17T22:26:55.324Z,32.55
2023-01-17T22:29:22.988Z,31.23
2023-01-17T22:31:50.034Z,34.45
2023-01-17T22:34:19.063Z,34.30
2023-01-17T22:36:46.114Z,36.53
2023-01-17T22:39:13.122Z,34.42
2023-01-17T22:41:40.115Z,33.95
2023-01-17T22:44:07.661Z,31.15
2023-01-17T22:46:37.330Z,29.15
2023-01-17T22:49:07.669Z,27.67
2023-01-17T22:51:35.414Z,29.50
2023-01-17T22:54:02.571Z,34.90
2023-01-17T22:56:33.864Z,27.33
2023-01-17T22:59:01.964Z,33.95
2023-01-17T23:01:31.652Z,29.38
2023-01-17T23:04:01.769Z,35.10
2023-01-17T23:06:31.127Z,30.23
2023-01-17T23:09:01.845Z,32.38
2023-01-17T23:11:39.772Z,30.35
2023-01-17T23:14:10.850Z,35.15
2023-01-17T23:16:58.225Z,40.00
2023-01-17T23:19:27.424Z,31.92
2023-01-17T23:22:19.509Z,34.83
2023-01-17T23:24:51.468Z,29.77
2023-01-17T23:27:52.412Z,40.35
2023-01-17T23:30:21.947Z,27.75
2023-01-17T23:32:55.025Z,36.38
2023-01-17T23:35:25.598Z,40.67
2023-01-17T23:38:11.478Z,38.28
2023-01-17T23:40:40.186Z,33.90
2023-01-17T23:43:25.226Z,32.28
2023-01-17T23:45:53.898Z,36.10
2023-01-17T23:48:23.683Z,40.92
2023-01-17T23:50:50.902Z,36.38
2023-01-17T23:53:23.266Z,32.47
2023-01-17T23:55:55.829Z,32.13
2023-01-17T23:58:25.223Z,38.15
